Terminal Aerodrome Forecast
Issued by NWS Caribou, ME

Home | Current Version | Previous Version | Text Only | Print | Product List | Glossary On
Versions: 1 2 3 4 5 6 7 8 9 10 11 12 13 14
398
FTUS41 KCAR 172326
TAFBGR
TAF
KBGR 172326Z 1800/1824 36005KT 2SM -SN OVC020
     FM180200 34003KT 3SM -SN OVC015
     FM180800 VRB02KT P6SM SCT015 BKN035
     FM181100 32004KT P6SM SCT250=

USA.gov is the U.S. government's official web portal to all federal, state and local government web resources and services.